Time;durP1;ratioP1;P1;durP2;ratioP2;P2;SDS_P1;SDS_P2;PMS_P1;PMS_P2;Temp;Humidity;BMP_temperature;BMP_pressure;BME280_temperature;BME280_humidity;BME280_pressure;Samples;Min_cycle;Max_cycle;Signal;HPM_P1;HPM_P2
2023/04/18 00:01:56;;;;;;;23.93;15.93;;;;;;;6.95;100.00;103044.63;5026880;28;20652;-68
2023/04/18 00:04:21;;;;;;;22.83;15.23;;;;;;;6.98;100.00;103051.59;5022953;28;20793;-68
2023/04/18 00:06:48;;;;;;;23.20;15.77;;;;;;;6.96;100.00;103050.63;5017878;28;20572;-68
2023/04/18 00:09:14;;;;;;;24.90;16.17;;;;;;;6.91;100.00;103052.84;5020972;28;20205;-67
2023/04/18 00:11:40;;;;;;;23.57;16.33;;;;;;;6.96;100.00;103043.84;5020408;28;20191;-69
2023/04/18 00:14:05;;;;;;;25.07;16.80;;;;;;;6.87;100.00;103045.75;5024540;28;20206;-69
2023/04/18 00:16:32;;;;;;;24.20;16.83;;;;;;;6.85;100.00;103048.97;5024542;28;20216;-69
2023/04/18 00:18:57;;;;;;;31.47;17.57;;;;;;;6.89;100.00;103043.31;5017166;28;20232;-69
2023/04/18 00:21:24;;;;;;;24.43;16.70;;;;;;;6.90;100.00;103043.44;5020150;28;20194;-68
2023/04/18 00:23:50;;;;;;;25.30;17.53;;;;;;;6.82;100.00;103041.16;5021553;28;20252;-68
2023/04/18 00:26:15;;;;;;;24.13;17.83;;;;;;;6.82;100.00;103042.00;5021013;28;20324;-68
2023/04/18 00:28:43;;;;;;;29.53;19.00;;;;;;;6.75;100.00;103044.94;5011187;28;20637;-68
2023/04/18 00:31:09;;;;;;;27.17;18.63;;;;;;;6.80;100.00;103050.31;5007609;28;20194;-68
2023/04/18 00:33:34;;;;;;;22.77;17.00;;;;;;;6.76;100.00;103049.22;5023917;28;20232;-68
2023/04/18 00:35:59;;;;;;;28.30;18.97;;;;;;;6.81;100.00;103047.03;5019274;28;20257;-67
2023/04/18 00:38:25;;;;;;;25.57;17.27;;;;;;;6.77;100.00;103048.44;5001625;28;20245;-68
2023/04/18 00:40:50;;;;;;;29.10;18.57;;;;;;;6.68;100.00;103045.25;5002837;28;20201;-68
2023/04/18 00:43:16;;;;;;;30.70;19.43;;;;;;;6.67;100.00;103040.94;5007586;28;20194;-68
2023/04/18 00:45:43;;;;;;;33.83;20.17;;;;;;;6.57;100.00;103041.09;5023449;28;20253;-68
2023/04/18 00:48:09;;;;;;;31.93;20.03;;;;;;;6.54;100.00;103037.44;5025664;28;20620;-67
2023/04/18 00:50:36;;;;;;;33.67;20.93;;;;;;;6.61;100.00;103040.53;5016945;28;20203;-68
2023/04/18 00:53:01;;;;;;;33.63;22.83;;;;;;;6.59;100.00;103043.75;5010146;28;20199;-70
2023/04/18 00:55:28;;;;;;;35.30;22.57;;;;;;;6.54;100.00;103038.31;5007691;28;20289;-68
2023/04/18 00:57:53;;;;;;;37.03;23.10;;;;;;;6.54;100.00;103045.09;5020240;28;20272;-68
2023/04/18 01:00:19;;;;;;;32.30;22.70;;;;;;;6.43;100.00;103044.31;5028153;28;20210;-68
2023/04/18 01:02:46;;;;;;;36.93;25.13;;;;;;;6.42;100.00;103040.00;5013637;28;20183;-67
2023/04/18 01:05:12;;;;;;;37.27;23.53;;;;;;;6.46;100.00;103028.38;5006966;28;20198;-68
2023/04/18 01:07:40;;;;;;;41.13;25.47;;;;;;;6.45;100.00;103027.47;5006731;28;20226;-67
2023/04/18 01:10:06;;;;;;;38.10;26.53;;;;;;;6.38;100.00;103026.94;5024145;28;20958;-67
2023/04/18 01:12:32;;;;;;;41.73;26.73;;;;;;;6.43;100.00;103023.06;5023564;28;20194;-69
2023/04/18 01:14:59;;;;;;;35.93;24.10;;;;;;;6.46;100.00;103028.38;5016514;28;20281;-67
2023/04/18 01:17:27;;;;;;;39.47;24.97;;;;;;;6.50;100.00;103030.38;5004672;28;20293;-67
2023/04/18 01:19:52;;;;;;;42.50;27.03;;;;;;;6.46;100.00;103031.81;5023529;28;20307;-69
2023/04/18 01:22:19;;;;;;;46.47;28.53;;;;;;;6.45;100.00;103024.06;5023323;28;20191;-69
2023/04/18 01:24:44;;;;;;;44.90;27.23;;;;;;;6.47;100.00;103027.59;5023567;28;20980;-69
2023/04/18 01:27:12;;;;;;;47.83;26.90;;;;;;;6.50;100.00;103032.91;5010379;28;20222;-69
2023/04/18 01:29:38;;;;;;;39.53;26.83;;;;;;;6.52;100.00;103029.69;5010199;28;20205;-68
2023/04/18 01:32:04;;;;;;;40.23;25.90;;;;;;;6.53;100.00;103028.03;4994066;28;20192;-68
2023/04/18 01:34:29;;;;;;;43.10;26.90;;;;;;;6.49;100.00;103038.78;5008300;28;20664;-68
2023/04/18 01:36:55;;;;;;;41.27;27.60;;;;;;;6.45;100.00;103034.25;5023971;28;20281;-68
2023/04/18 01:39:20;;;;;;;44.70;27.03;;;;;;;6.46;100.00;103038.56;5024864;28;20233;-68
2023/04/18 01:41:46;;;;;;;49.00;30.07;;;;;;;6.39;100.00;103044.88;5010331;28;20273;-68
2023/04/18 01:44:11;;;;;;;44.07;27.43;;;;;;;6.39;100.00;103042.31;5011554;28;20558;-68
2023/04/18 01:46:37;;;;;;;45.50;28.90;;;;;;;6.33;100.00;103034.28;4984769;28;20202;-69
2023/04/18 01:49:04;;;;;;;48.93;29.10;;;;;;;6.33;100.00;103041.00;5006965;28;20286;-68
2023/04/18 01:51:30;;;;;;;49.00;29.13;;;;;;;6.34;100.00;103040.22;5004275;28;20198;-68
2023/04/18 01:53:55;;;;;;;43.93;28.17;;;;;;;6.31;100.00;103043.44;5009056;28;20252;-68
2023/04/18 01:56:21;;;;;;;50.30;28.97;;;;;;;6.29;100.00;103039.91;5024513;28;20220;-68
2023/04/18 01:58:47;;;;;;;43.23;27.13;;;;;;;6.24;100.00;103048.88;5001757;28;20554;-69
2023/04/18 02:01:12;;;;;;;41.90;27.97;;;;;;;6.21;100.00;103041.00;4998776;28;20190;-68
2023/04/18 02:03:38;;;;;;;45.03;28.63;;;;;;;6.17;100.00;103045.78;5019062;28;20247;-68
2023/04/18 02:06:05;;;;;;;43.93;28.40;;;;;;;6.10;100.00;103041.91;5007168;28;20202;-67
2023/04/18 02:08:34;;;;;;;48.83;28.03;;;;;;;6.08;100.00;103035.81;5020992;28;20217;-68
2023/04/18 02:11:02;;;;;;;45.10;28.13;;;;;;;6.01;100.00;103043.78;5012069;28;20201;-68
2023/04/18 02:13:28;;;;;;;45.37;27.80;;;;;;;6.06;100.00;103042.47;5025247;28;20202;-68
2023/04/18 02:15:53;;;;;;;46.87;28.77;;;;;;;5.99;100.00;103036.81;5007767;28;20309;-68
2023/04/18 02:18:19;;;;;;;47.30;28.23;;;;;;;6.03;100.00;103037.13;5020291;28;20668;-68
2023/04/18 02:20:45;;;;;;;44.23;28.53;;;;;;;5.96;100.00;103029.84;5009003;28;20198;-68
2023/04/18 02:23:10;;;;;;;45.33;29.17;;;;;;;5.95;100.00;103033.16;5024364;28;20213;-68
2023/04/18 02:25:36;;;;;;;45.27;28.80;;;;;;;5.94;100.00;103031.38;5006028;28;20687;-68
2023/04/18 02:28:01;;;;;;;49.27;29.40;;;;;;;5.92;100.00;103039.66;5007820;28;20612;-68
2023/04/18 02:30:30;;;;;;;45.60;29.03;;;;;;;5.94;100.00;103033.06;5008890;28;20196;-68
2023/04/18 02:32:55;;;;;;;47.10;29.33;;;;;;;5.85;100.00;103033.25;5017916;28;20202;-69
2023/04/18 02:35:23;;;;;;;48.53;29.27;;;;;;;5.87;100.00;103041.00;5021345;28;20655;-68
2023/04/18 02:37:49;;;;;;;53.10;31.67;;;;;;;5.86;100.00;103039.22;5002994;28;20218;-68
2023/04/18 02:40:16;;;;;;;50.37;30.47;;;;;;;5.82;100.00;103040.69;5009731;28;20210;-68
2023/04/18 02:42:41;;;;;;;48.10;29.83;;;;;;;5.88;100.00;103041.13;5007054;28;20619;-68
2023/04/18 02:45:07;;;;;;;48.17;30.53;;;;;;;5.78;100.00;103041.19;5026161;28;20649;-69
2023/04/18 02:47:33;;;;;;;52.43;31.30;;;;;;;5.72;100.00;103043.28;5004499;28;20553;-69
2023/04/18 02:49:59;;;;;;;55.23;31.47;;;;;;;5.69;100.00;103040.50;5020131;28;20195;-69
2023/04/18 02:52:26;;;;;;;51.37;31.30;;;;;;;5.69;100.00;103050.66;5008405;28;20688;-69
2023/04/18 02:54:51;;;;;;;50.00;30.63;;;;;;;5.69;100.00;103044.69;5008849;28;20282;-69
2023/04/18 02:57:22;;;;;;;53.13;31.43;;;;;;;5.73;100.00;103045.03;5008571;28;20271;-69
2023/04/18 02:59:53;;;;;;;52.37;32.33;;;;;;;5.73;100.00;103051.78;5028602;28;20230;-69
2023/04/18 03:02:54;;;;;;;55.77;32.80;;;;;;;5.66;100.00;103049.56;4999951;28;20300;-68
2023/04/18 03:05:29;;;;;;;53.77;31.87;;;;;;;5.57;100.00;103049.75;5010293;28;20231;-69
2023/04/18 03:07:58;;;;;;;56.83;32.87;;;;;;;5.59;100.00;103043.13;5001666;28;20222;-69
2023/04/18 03:10:23;;;;;;;52.60;31.77;;;;;;;5.60;100.00;103049.09;5004332;28;20191;-69
2023/04/18 03:12:49;;;;;;;52.93;34.00;;;;;;;5.55;100.00;103050.41;5006755;28;20206;-68
2023/04/18 03:15:16;;;;;;;59.40;33.30;;;;;;;5.53;100.00;103055.38;5006788;28;20201;-68
2023/04/18 03:17:42;;;;;;;56.43;32.37;;;;;;;5.53;100.00;103055.38;5003816;28;20206;-68
2023/04/18 03:20:09;;;;;;;55.27;32.87;;;;;;;5.51;100.00;103051.84;5021137;28;20230;-69
2023/04/18 03:22:34;;;;;;;58.20;32.90;;;;;;;5.49;100.00;103060.13;5019989;28;20561;-68
2023/04/18 03:25:00;;;;;;;53.50;33.57;;;;;;;5.46;100.00;103062.41;5011098;28;20202;-68
2023/04/18 03:27:49;;;;;;;57.20;32.83;;;;;;;5.44;100.00;103063.97;5006171;28;20215;-68
2023/04/18 03:30:16;;;;;;;57.37;34.23;;;;;;;5.40;100.00;103061.97;5008723;28;20197;-69
2023/04/18 03:32:47;;;;;;;58.50;34.33;;;;;;;5.35;100.00;103056.53;5006369;28;20190;-68
2023/04/18 03:35:14;;;;;;;60.03;34.30;;;;;;;5.34;100.00;103061.50;5003691;28;20240;-68
2023/04/18 03:37:40;;;;;;;59.73;35.03;;;;;;;5.33;100.00;103063.16;5003008;28;20218;-68
2023/04/18 03:40:07;;;;;;;54.80;33.63;;;;;;;5.35;100.00;103060.72;5003761;28;20210;-68
2023/04/18 03:42:34;;;;;;;54.63;32.87;;;;;;;5.30;100.00;103064.59;5007105;28;20282;-68
2023/04/18 03:44:59;;;;;;;57.50;33.83;;;;;;;5.22;100.00;103063.09;5007202;28;20293;-67
2023/04/18 03:47:25;;;;;;;59.63;34.77;;;;;;;5.25;100.00;103064.22;5017072;28;20214;-68
2023/04/18 03:49:54;;;;;;;54.93;31.50;;;;;;;5.28;100.00;103059.38;5005021;28;20194;-68
2023/04/18 03:52:22;;;;;;;56.83;33.17;;;;;;;5.22;100.00;103074.16;5008780;28;20600;-68
2023/04/18 03:54:48;;;;;;;57.80;32.77;;;;;;;5.21;100.00;103074.03;5010624;28;20240;-68
2023/04/18 03:57:15;;;;;;;58.97;33.40;;;;;;;5.16;100.00;103071.13;5007744;28;20206;-69
2023/04/18 03:59:40;;;;;;;55.37;33.30;;;;;;;5.17;100.00;103074.56;5005591;28;20257;-67
2023/04/18 04:02:06;;;;;;;56.90;32.63;;;;;;;5.16;100.00;103075.34;5004367;28;20186;-67
2023/04/18 04:04:31;;;;;;;54.73;32.03;;;;;;;5.14;100.00;103077.75;5018509;28;20680;-67
2023/04/18 04:06:58;;;;;;;51.47;32.97;;;;;;;5.10;100.00;103078.28;5005631;28;20218;-69
2023/04/18 04:09:24;;;;;;;52.03;31.20;;;;;;;5.14;100.00;103075.22;5006938;28;20212;-68
2023/04/18 04:11:49;;;;;;;55.17;32.33;;;;;;;5.12;100.00;103089.47;5009494;28;20317;-69
2023/04/18 04:14:15;;;;;;;55.80;32.23;;;;;;;5.03;100.00;103083.69;5006097;28;20225;-68
2023/04/18 04:16:44;;;;;;;51.23;31.23;;;;;;;5.04;100.00;103085.44;5006030;28;20259;-68
2023/04/18 04:19:11;;;;;;;51.47;31.93;;;;;;;5.07;100.00;103078.03;5003284;28;20210;-69
2023/04/18 04:21:42;;;;;;;51.63;30.63;;;;;;;5.04;100.00;103079.47;5008746;28;20214;-69
2023/04/18 04:24:12;;;;;;;60.07;33.40;;;;;;;5.01;100.00;103082.66;5008801;28;20220;-69
2023/04/18 04:26:41;;;;;;;55.30;30.40;;;;;;;5.05;100.00;103086.31;5020527;28;20191;-69
2023/04/18 04:29:20;;;;;;;51.70;30.67;;;;;;;5.03;100.00;103090.41;5007469;28;20244;-68
2023/04/18 04:31:46;;;;;;;55.03;31.47;;;;;;;5.02;100.00;103091.16;5011133;28;20280;-69
2023/04/18 04:34:17;;;;;;;52.90;31.90;;;;;;;5.02;100.00;103092.03;5009630;28;20672;-68
2023/04/18 04:36:43;;;;;;;47.83;28.30;;;;;;;5.02;100.00;103094.56;5007403;28;20189;-68
2023/04/18 04:39:11;;;;;;;49.37;30.20;;;;;;;5.01;100.00;103099.56;5006343;28;20293;-68
2023/04/18 04:42:12;;;;;;;50.13;29.07;;;;;;;5.01;100.00;103099.56;4986928;28;21034;-68
2023/04/18 04:44:48;;;;;;;51.00;28.73;;;;;;;5.07;100.00;103107.66;4998147;28;20230;-68
2023/04/18 04:47:15;;;;;;;48.57;29.20;;;;;;;5.05;100.00;103110.06;5007606;28;20576;-68
2023/04/18 04:49:40;;;;;;;51.30;30.00;;;;;;;5.02;100.00;103111.47;5009425;28;20276;-68
2023/04/18 04:52:05;;;;;;;51.73;28.50;;;;;;;5.04;100.00;103115.00;5007417;28;20285;-67
2023/04/18 04:54:31;;;;;;;51.23;28.83;;;;;;;5.07;100.00;103116.13;5006148;28;20208;-68
2023/04/18 04:56:56;;;;;;;50.97;29.07;;;;;;;5.09;100.00;103114.59;5013646;28;20217;-68
2023/04/18 04:59:22;;;;;;;46.23;27.27;;;;;;;5.14;100.00;103125.09;5002946;28;20300;-71
2023/04/18 05:01:48;;;;;;;49.40;27.87;;;;;;;5.18;100.00;103133.09;5007613;28;20203;-69
2023/04/18 05:04:13;;;;;;;47.83;26.20;;;;;;;5.20;100.00;103123.06;5007254;28;20692;-69
2023/04/18 05:06:39;;;;;;;43.13;27.10;;;;;;;5.23;100.00;103121.63;5022138;28;20661;-69
2023/04/18 05:09:04;;;;;;;40.47;24.73;;;;;;;5.27;100.00;103123.66;5022663;28;20194;-68
2023/04/18 05:11:30;;;;;;;41.67;24.90;;;;;;;5.36;100.00;103133.63;5025973;28;20701;-69
2023/04/18 05:13:55;;;;;;;44.93;24.97;;;;;;;5.41;100.00;103125.59;5027482;28;20237;-68
2023/04/18 05:16:21;;;;;;;40.83;24.00;;;;;;;5.45;100.00;103135.22;5022561;28;20191;-68
2023/04/18 05:18:46;;;;;;;45.83;24.70;;;;;;;5.49;100.00;103132.16;5021513;28;20586;-68
2023/04/18 05:21:11;;;;;;;38.53;24.03;;;;;;;5.59;100.00;103127.00;5023970;28;20289;-68
2023/04/18 05:23:37;;;;;;;31.53;22.23;;;;;;;5.74;100.00;103130.69;5024447;28;20290;-68
2023/04/18 05:26:04;;;;;;;38.47;22.17;;;;;;;5.75;100.00;103129.03;5026633;28;20233;-68
2023/04/18 05:28:29;;;;;;;36.77;21.70;;;;;;;5.77;100.00;103124.94;5022212;28;20218;-68
2023/04/18 05:30:59;;;;;;;35.43;21.77;;;;;;;5.90;100.00;103128.53;5019612;28;20664;-68
2023/04/18 05:33:29;;;;;;;34.23;21.00;;;;;;;6.01;100.00;103131.88;5021082;28;20194;-68
2023/04/18 05:35:55;;;;;;;30.77;20.63;;;;;;;6.05;100.00;103139.88;5023586;28;20190;-68
2023/04/18 05:38:20;;;;;;;32.37;20.17;;;;;;;6.20;100.00;103127.38;5006488;28;20711;-68
2023/04/18 05:40:46;;;;;;;31.83;19.43;;;;;;;6.20;100.00;103135.91;5023606;28;20215;-69
2023/04/18 05:43:11;;;;;;;31.53;19.93;;;;;;;6.40;100.00;103134.81;5024660;28;20685;-68
2023/04/18 05:45:37;;;;;;;31.00;18.63;;;;;;;6.44;100.00;103124.97;5020697;28;20202;-69
2023/04/18 05:48:02;;;;;;;30.17;18.60;;;;;;;6.27;100.00;103139.78;5019346;28;20214;-68
2023/04/18 05:50:28;;;;;;;27.50;18.20;;;;;;;6.44;100.00;103142.78;5022138;28;20186;-68
2023/04/18 05:52:53;;;;;;;30.63;18.60;;;;;;;6.48;100.00;103139.69;5019947;28;20202;-68
2023/04/18 05:55:18;;;;;;;28.10;17.23;;;;;;;6.65;100.00;103141.78;5023635;28;20186;-68
2023/04/18 05:57:44;;;;;;;26.57;16.90;;;;;;;6.92;100.00;103138.66;5017459;28;20561;-68
2023/04/18 06:00:10;;;;;;;25.50;16.80;;;;;;;6.90;100.00;103145.28;5006920;28;20218;-68
2023/04/18 06:02:39;;;;;;;22.37;15.63;;;;;;;7.00;100.00;103140.06;5019852;28;20230;-67
2023/04/18 06:05:05;;;;;;;24.30;16.10;;;;;;;7.10;100.00;103142.47;5023282;28;20243;-67
2023/04/18 06:07:31;;;;;;;23.53;13.97;;;;;;;7.13;100.00;103142.69;5022661;28;20222;-67
2023/04/18 06:09:56;;;;;;;20.83;14.37;;;;;;;7.35;100.00;103125.56;5021225;28;20201;-68
2023/04/18 06:12:22;;;;;;;22.67;14.60;;;;;;;7.41;100.00;103104.75;5019942;28;20193;-69
2023/04/18 06:14:48;;;;;;;19.57;13.20;;;;;;;7.60;100.00;103107.75;5003450;28;20520;-68
2023/04/18 06:17:14;;;;;;;18.80;13.57;;;;;;;7.68;100.00;103097.28;5019409;28;20211;-68
2023/04/18 06:19:39;;;;;;;20.37;13.67;;;;;;;7.76;100.00;103092.69;5021571;28;20747;-68
2023/04/18 06:22:05;;;;;;;21.43;13.17;;;;;;;7.92;100.00;103069.97;5024847;28;20195;-68
2023/04/18 06:24:30;;;;;;;20.93;12.90;;;;;;;7.95;100.00;103063.41;5023513;28;20198;-68
2023/04/18 06:26:56;;;;;;;16.73;11.97;;;;;;;7.72;100.00;103049.91;5019806;28;20696;-67
2023/04/18 06:29:22;;;;;;;20.77;12.83;;;;;;;7.65;100.00;103091.09;5018868;28;20228;-70
2023/04/18 06:31:49;;;;;;;18.80;12.37;;;;;;;7.71;100.00;103076.19;5018511;28;20286;-68
2023/04/18 06:34:15;;;;;;;18.03;12.30;;;;;;;7.78;100.00;103061.41;5021751;28;20199;-69
2023/04/18 06:36:41;;;;;;;19.10;12.20;;;;;;;7.87;100.00;103049.25;5000454;28;20309;-69
2023/04/18 06:39:07;;;;;;;18.80;11.77;;;;;;;7.86;100.00;103047.50;5020931;28;20305;-69
2023/04/18 06:41:32;;;;;;;18.97;11.50;;;;;;;7.92;100.00;103058.09;5019398;28;20193;-69
2023/04/18 06:43:58;;;;;;;19.67;12.17;;;;;;;8.01;100.00;103052.72;5020799;28;20198;-69
2023/04/18 06:46:23;;;;;;;16.97;11.37;;;;;;;8.16;100.00;103031.59;5018944;28;20217;-69
2023/04/18 06:48:49;;;;;;;15.93;10.67;;;;;;;8.17;100.00;103032.50;5020219;28;20206;-69
2023/04/18 06:51:15;;;;;;;19.33;11.67;;;;;;;8.18;100.00;103018.94;5024610;28;20210;-68
2023/04/18 06:53:40;;;;;;;16.50;10.27;;;;;;;8.32;100.00;102991.00;5017905;28;20250;-68
2023/04/18 06:56:06;;;;;;;14.37;10.73;;;;;;;8.43;100.00;103035.06;5024875;28;20250;-69
2023/04/18 06:58:31;;;;;;;17.87;10.73;;;;;;;8.50;100.00;103042.31;5020749;28;20678;-68
2023/04/18 07:00:57;;;;;;;18.97;10.80;;;;;;;8.60;100.00;103024.22;5018303;28;20222;-67
2023/04/18 07:03:22;;;;;;;19.67;10.87;;;;;;;8.64;100.00;103023.63;5018187;28;20210;-69
2023/04/18 07:05:49;;;;;;;17.93;10.30;;;;;;;8.66;100.00;102991.44;5020905;28;20588;-67
2023/04/18 07:08:14;;;;;;;13.10;9.47;;;;;;;8.73;100.00;102991.91;5024569;28;20214;-68
2023/04/18 07:10:41;;;;;;;14.77;10.17;;;;;;;8.81;100.00;103000.88;4997557;28;20199;-68
2023/04/18 07:13:07;;;;;;;16.53;10.07;;;;;;;8.90;100.00;103005.69;5014275;28;20807;-66
2023/04/18 07:15:36;;;;;;;15.53;9.70;;;;;;;9.10;100.00;103003.53;5014444;28;20202;-68
2023/04/18 07:18:02;;;;;;;15.93;9.20;;;;;;;9.28;100.00;103049.75;5018176;28;20214;-68
2023/04/18 07:20:27;;;;;;;12.23;9.27;;;;;;;9.41;100.00;102986.69;5019071;28;20215;-68
2023/04/18 07:22:53;;;;;;;13.10;9.67;;;;;;;9.49;100.00;102930.88;5012659;28;20202;-68
2023/04/18 07:25:18;;;;;;;12.07;8.67;;;;;;;9.52;100.00;102908.00;5024301;28;20190;-69
2023/04/18 07:27:45;;;;;;;13.70;9.23;;;;;;;9.80;100.00;102888.28;5013596;28;20206;-70
2023/04/18 07:30:11;;;;;;;13.37;8.83;;;;;;;9.86;100.00;102812.75;5014278;28;20277;-69
2023/04/18 07:32:36;;;;;;;16.17;9.03;;;;;;;10.00;100.00;102839.94;5017494;28;20282;-70
2023/04/18 07:35:02;;;;;;;12.57;9.07;;;;;;;9.99;100.00;102806.59;5018787;28;20199;-70
2023/04/18 07:37:28;;;;;;;14.37;9.10;;;;;;;10.23;100.00;102795.13;5021556;28;20590;-69
2023/04/18 07:39:53;;;;;;;13.93;9.40;;;;;;;10.25;100.00;102785.84;5012057;28;20210;-71
2023/04/18 07:42:19;;;;;;;13.93;9.77;;;;;;;10.54;100.00;102783.97;5019926;28;20194;-70
2023/04/18 07:44:44;;;;;;;12.83;9.00;;;;;;;10.72;100.00;102764.41;5011347;28;20667;-72
2023/04/18 07:47:10;;;;;;;12.80;9.00;;;;;;;10.86;100.00;102722.38;5014709;28;20745;-70
2023/04/18 07:49:36;;;;;;;11.57;9.13;;;;;;;10.92;100.00;102738.06;5016002;28;20649;-72
2023/04/18 07:52:02;;;;;;;14.47;8.90;;;;;;;11.44;100.00;102670.47;4995904;28;20198;-71
2023/04/18 07:54:28;;;;;;;13.83;8.43;;;;;;;11.80;100.00;102614.78;5011514;28;20206;-69
2023/04/18 07:56:53;;;;;;;12.57;8.20;;;;;;;11.79;100.00;102598.50;5013029;28;20236;-69
2023/04/18 07:59:19;;;;;;;11.57;8.57;;;;;;;12.24;100.00;102564.44;5017921;28;20234;-72
2023/04/18 08:01:44;;;;;;;14.07;9.17;;;;;;;12.37;100.00;102552.97;5018226;28;20277;-72
2023/04/18 08:04:10;;;;;;;11.87;8.60;;;;;;;12.38;100.00;102575.25;4977440;28;20225;-72
2023/04/18 08:06:36;;;;;;;10.50;8.07;;;;;;;12.57;99.87;102510.91;5014138;28;20623;-71
2023/04/18 08:09:04;;;;;;;10.33;8.03;;;;;;;12.55;97.88;102487.75;5017128;28;20313;-73
2023/04/18 08:11:31;;;;;;;11.93;8.33;;;;;;;12.71;99.63;102496.91;4995144;28;20256;-70
2023/04/18 08:13:56;;;;;;;9.13;7.93;;;;;;;12.88;100.00;102498.41;5010117;28;20213;-73
2023/04/18 08:16:21;;;;;;;9.50;8.00;;;;;;;12.94;96.13;102476.34;5015344;28;20533;-72
2023/04/18 08:18:47;;;;;;;12.13;8.03;;;;;;;12.90;95.50;102473.63;5018611;28;21085;-73
2023/04/18 08:21:12;;;;;;;11.33;7.80;;;;;;;13.20;92.50;102454.16;5021803;28;20202;-72
2023/04/18 08:23:38;;;;;;;10.70;7.80;;;;;;;13.15;90.67;102434.22;5017297;28;20199;-72
2023/04/18 08:26:03;;;;;;;8.87;7.50;;;;;;;13.30;89.77;102427.06;5013197;28;20333;-73
2023/04/18 08:28:29;;;;;;;12.33;8.83;;;;;;;13.46;87.91;102421.59;5008720;28;20234;-73
2023/04/18 08:30:55;;;;;;;12.87;9.13;;;;;;;13.38;89.26;102439.34;5019483;28;20202;-71
2023/04/18 08:33:25;;;;;;;11.37;8.57;;;;;;;14.05;87.49;102422.66;5016920;28;20280;-70
2023/04/18 08:35:51;;;;;;;10.87;7.70;;;;;;;14.35;80.17;102361.75;5006326;28;20671;-70
2023/04/18 08:38:17;;;;;;;10.70;7.77;;;;;;;14.41;82.51;102382.53;5021731;28;20206;-71
2023/04/18 08:40:43;;;;;;;9.40;7.00;;;;;;;13.64;88.30;102428.22;5013585;28;20223;-72
2023/04/18 08:43:12;;;;;;;10.63;6.67;;;;;;;13.19;84.55;102429.25;5013840;28;20583;-71
2023/04/18 08:45:39;;;;;;;8.20;6.87;;;;;;;13.19;87.39;102455.00;5016412;28;20538;-71
2023/04/18 08:48:06;;;;;;;8.97;6.30;;;;;;;13.14;88.90;102459.09;5014224;28;20226;-70
2023/04/18 08:50:32;;;;;;;9.20;7.13;;;;;;;13.07;91.38;102497.41;5014480;28;20183;-70
2023/04/18 08:52:59;;;;;;;10.73;7.30;;;;;;;13.09;95.14;102511.19;5022931;28;20578;-70
2023/04/18 08:55:25;;;;;;;9.70;6.93;;;;;;;13.11;96.67;102543.00;5022030;28;20787;-70
2023/04/18 08:57:53;;;;;;;10.17;6.97;;;;;;;13.06;93.58;102505.94;5011428;28;20250;-70
2023/04/18 09:00:19;;;;;;;9.27;6.83;;;;;;;13.13;92.70;102520.78;5007221;28;20305;-70
2023/04/18 09:02:45;;;;;;;10.67;6.80;;;;;;;13.09;97.20;102552.34;5017821;28;20282;-70
2023/04/18 09:05:15;;;;;;;8.40;6.40;;;;;;;13.13;97.15;102544.81;5019839;28;20226;-70
2023/04/18 09:07:41;;;;;;;6.97;6.23;;;;;;;12.49;96.37;102551.75;5018026;28;20297;-69
2023/04/18 09:10:07;;;;;;;9.30;6.70;;;;;;;12.39;98.96;102575.31;5015213;28;20236;-69
2023/04/18 09:12:41;;;;;;;7.00;6.13;;;;;;;12.24;100.00;102587.56;5005991;28;20648;-69
2023/04/18 09:15:14;;;;;;;8.87;6.30;;;;;;;12.20;100.00;102602.78;5017778;28;20234;-70
2023/04/18 09:17:42;;;;;;;7.93;6.50;;;;;;;12.27;100.00;102603.13;5019746;28;20206;-70
2023/04/18 09:20:14;;;;;;;6.30;5.33;;;;;;;12.30;100.00;102613.50;5000970;28;20229;-70
2023/04/18 09:22:56;;;;;;;7.80;5.70;;;;;;;12.48;100.00;102641.59;5016917;28;20191;-69
2023/04/18 09:25:26;;;;;;;8.27;5.67;;;;;;;12.25;96.28;102594.44;5019995;28;20245;-70
2023/04/18 09:27:52;;;;;;;7.37;4.80;;;;;;;12.33;98.79;102597.31;5017362;28;20210;-69
2023/04/18 09:30:30;;;;;;;7.03;5.33;;;;;;;12.17;100.00;102626.63;5020854;28;20179;-69
2023/04/18 09:32:58;;;;;;;6.10;5.00;;;;;;;12.09;100.00;102628.03;5021002;28;20183;-71
2023/04/18 09:35:25;;;;;;;7.43;5.30;;;;;;;12.21;99.73;102625.97;5020578;28;20285;-71
2023/04/18 09:37:51;;;;;;;8.13;5.77;;;;;;;12.13;100.00;102653.00;5021108;28;20226;-72
2023/04/18 09:40:18;;;;;;;6.63;5.13;;;;;;;12.23;100.00;102659.41;5015535;28;20221;-71
2023/04/18 09:42:44;;;;;;;5.73;4.80;;;;;;;12.13;100.00;102650.44;5019807;28;20182;-70
2023/04/18 09:45:11;;;;;;;9.07;5.03;;;;;;;12.25;100.00;102680.88;5016212;28;20211;-71
2023/04/18 09:47:38;;;;;;;6.60;5.73;;;;;;;12.09;100.00;102635.75;5017476;28;20218;-71
2023/04/18 09:50:06;;;;;;;7.87;5.20;;;;;;;12.25;100.00;102652.63;5020608;28;20653;-70
2023/04/18 09:52:36;;;;;;;5.43;4.93;;;;;;;12.13;100.00;102647.00;5024670;28;20570;-70
2023/04/18 09:55:04;;;;;;;7.60;5.80;;;;;;;12.04;100.00;102693.72;5020294;28;20191;-71
2023/04/18 09:57:31;;;;;;;7.27;5.40;;;;;;;12.36;100.00;102685.66;5026362;28;20211;-71
2023/04/18 09:59:56;;;;;;;7.83;5.30;;;;;;;12.42;100.00;102665.38;5017249;28;20218;-70
2023/04/18 10:02:24;;;;;;;6.87;5.43;;;;;;;12.42;100.00;102675.66;5021728;28;20210;-71
2023/04/18 10:04:51;;;;;;;7.43;5.30;;;;;;;12.45;100.00;102683.47;5011828;28;20225;-69
2023/04/18 10:07:16;;;;;;;6.50;5.17;;;;;;;12.29;100.00;102640.00;5004195;28;20221;-70
2023/04/18 10:09:45;;;;;;;5.97;4.40;;;;;;;12.25;100.00;102645.81;5019171;28;20191;-71
2023/04/18 10:12:11;;;;;;;8.17;5.87;;;;;;;12.11;100.00;102669.16;5018566;28;20943;-71
2023/04/18 10:14:41;;;;;;;5.47;4.70;;;;;;;12.17;100.00;102657.47;5014640;28;20736;-71
2023/04/18 10:17:08;;;;;;;8.00;5.20;;;;;;;12.29;100.00;102645.13;5017181;28;20214;-69
2023/04/18 10:19:33;;;;;;;6.50;4.73;;;;;;;12.30;100.00;102631.47;5020087;28;20218;-71
2023/04/18 10:22:00;;;;;;;7.07;4.47;;;;;;;12.52;100.00;102662.38;5023139;28;20210;-71
2023/04/18 10:24:48;;;;;;;5.87;4.87;;;;;;;12.37;100.00;102668.56;5015228;28;20203;-71
2023/04/18 10:27:58;;;;;;;5.50;4.67;;;;;;;12.22;100.00;102686.78;5018399;28;20215;-70
2023/04/18 10:30:39;;;;;;;7.10;5.27;;;;;;;12.37;100.00;102682.31;4917124;29;20694;-69
2023/04/18 10:33:25;;;;;;;7.50;5.33;;;;;;;12.25;100.00;102650.06;4912959;29;20216;-71
2023/04/18 10:35:59;;;;;;;7.90;4.70;;;;;;;12.45;100.00;102678.34;4993245;28;20279;-69
2023/04/18 10:38:26;;;;;;;5.90;4.90;;;;;;;12.53;100.00;102655.56;5018133;28;20237;-71
2023/04/18 10:40:51;;;;;;;6.43;4.60;;;;;;;12.71;100.00;102652.00;5022218;28;20209;-69
2023/04/18 10:43:17;;;;;;;6.80;4.83;;;;;;;12.53;100.00;102648.69;5016665;28;20567;-70
2023/04/18 10:45:42;;;;;;;7.37;5.57;;;;;;;12.47;100.00;102647.56;5016867;28;20206;-70
2023/04/18 10:48:28;;;;;;;6.97;4.67;;;;;;;12.80;100.00;102660.09;5019509;28;20237;-70
2023/04/18 10:51:20;;;;;;;6.67;5.10;;;;;;;12.88;100.00;102646.66;5011079;28;20203;-70
2023/04/18 10:53:52;;;;;;;5.63;4.80;;;;;;;12.74;100.00;102633.25;5017237;28;20251;-71
2023/04/18 10:56:18;;;;;;;5.93;5.33;;;;;;;12.65;98.46;102602.06;5015232;28;20571;-70
2023/04/18 10:58:49;;;;;;;6.87;4.70;;;;;;;12.73;100.00;102627.22;5018817;28;20221;-70
2023/04/18 11:01:18;;;;;;;5.77;4.23;;;;;;;12.72;100.00;102614.34;5003110;28;20210;-70
2023/04/18 11:03:43;;;;;;;6.07;4.63;;;;;;;12.80;100.00;102615.50;5019184;28;20215;-70
2023/04/18 11:06:09;;;;;;;6.00;4.93;;;;;;;12.86;98.14;102592.63;5020154;28;20598;-70
2023/04/18 11:08:34;;;;;;;6.23;5.03;;;;;;;13.02;100.00;102612.09;5013202;28;20241;-71
2023/04/18 11:11:02;;;;;;;5.93;5.10;;;;;;;13.07;100.00;102628.59;5013169;28;20277;-70
2023/04/18 11:13:27;;;;;;;7.47;5.13;;;;;;;13.50;100.00;102630.22;5019301;28;20280;-70